createdAt,value
2022-09-15T00:00:23.428Z,2.50
2022-09-15T00:03:28.964Z,2.10
2022-09-15T00:06:36.056Z,2.40
2022-09-15T00:09:41.904Z,2.45
2022-09-15T00:12:47.431Z,2.47
2022-09-15T00:15:54.178Z,2.65
2022-09-15T00:19:01.081Z,2.88
2022-09-15T00:22:07.370Z,3.00
2022-09-15T00:25:14.322Z,2.90
2022-09-15T00:28:22.011Z,2.58
2022-09-15T00:31:29.680Z,2.65
2022-09-15T00:34:35.304Z,3.08
2022-09-15T00:37:40.734Z,3.20
2022-09-15T00:40:53.020Z,3.00
2022-09-15T00:44:36.895Z,3.15
2022-09-15T00:47:42.422Z,2.92
2022-09-15T00:50:53.924Z,2.67
2022-09-15T00:54:03.291Z,3.00
2022-09-15T00:57:21.233Z,3.00
2022-09-15T01:00:28.177Z,3.20
2022-09-15T01:03:35.745Z,3.50
2022-09-15T01:06:48.226Z,3.65
2022-09-15T01:10:05.056Z,3.03
2022-09-15T01:13:13.151Z,3.80
2022-09-15T01:17:06.707Z,3.58
2022-09-15T01:20:29.838Z,3.38
2022-09-15T01:24:08.807Z,3.55
2022-09-15T01:27:47.469Z,3.45
2022-09-15T01:31:16.475Z,3.60
2022-09-15T01:34:22.681Z,3.13
2022-09-15T01:37:33.098Z,3.00
2022-09-15T01:41:01.920Z,3.05
2022-09-15T01:44:28.849Z,3.30
2022-09-15T01:47:35.655Z,2.97
2022-09-15T01:50:49.160Z,2.88
2022-09-15T01:53:55.376Z,3.03
2022-09-15T01:57:03.775Z,3.03
2022-09-15T02:00:10.320Z,2.90
2022-09-15T02:03:35.279Z,2.97
2022-09-15T02:07:07.323Z,3.13
2022-09-15T02:10:39.356Z,2.90
2022-09-15T02:14:05.211Z,2.90
2022-09-15T02:17:16.284Z,3.00
2022-09-15T02:20:39.042Z,2.88
2022-09-15T02:23:53.127Z,2.28
2022-09-15T02:27:01.911Z,2.80
2022-09-15T02:30:12.041Z,2.80
2022-09-15T02:33:20.319Z,2.53
2022-09-15T02:36:27.396Z,3.10
2022-09-15T02:39:38.139Z,2.25
2022-09-15T02:43:01.920Z,2.28
2022-09-15T02:46:07.204Z,2.15
2022-09-15T02:49:14.017Z,2.17
2022-09-15T02:52:20.099Z,2.35
2022-09-15T02:55:29.414Z,2.15
2022-09-15T02:58:35.532Z,2.00
2022-09-15T03:01:41.509Z,1.90
2022-09-15T03:04:48.697Z,2.60
2022-09-15T03:07:55.273Z,1.90
2022-09-15T03:11:00.863Z,2.22
2022-09-15T03:14:08.453Z,1.70
2022-09-15T03:17:16.420Z,2.03
2022-09-15T03:20:32.280Z,2.00
2022-09-15T03:23:38.259Z,1.83
2022-09-15T03:26:44.161Z,1.90
2022-09-15T03:29:51.005Z,1.92
2022-09-15T03:32:56.837Z,2.13
2022-09-15T03:36:03.630Z,2.00
2022-09-15T03:39:14.497Z,1.55
2022-09-15T03:42:22.319Z,2.00
2022-09-15T03:45:28.023Z,1.55
2022-09-15T03:48:35.710Z,1.70
2022-09-15T03:51:42.358Z,1.70
2022-09-15T03:54:49.455Z,1.63
2022-09-15T03:57:56.110Z,1.77
2022-09-15T04:01:04.468Z,1.88
2022-09-15T04:04:11.439Z,1.73
2022-09-15T04:07:19.406Z,1.40
2022-09-15T04:10:26.479Z,1.80
2022-09-15T04:13:34.515Z,1.60
2022-09-15T04:16:41.420Z,1.50
2022-09-15T04:19:48.903Z,1.58
2022-09-15T04:22:54.685Z,1.70
2022-09-15T04:26:08.194Z,1.73
2022-09-15T04:29:16.797Z,1.50
2022-09-15T04:32:22.231Z,1.90
2022-09-15T04:35:31.798Z,1.50
2022-09-15T04:38:37.855Z,1.98
2022-09-15T04:41:43.566Z,1.58
2022-09-15T04:44:50.046Z,1.58
2022-09-15T04:47:58.358Z,1.50
2022-09-15T04:51:11.116Z,1.60
2022-09-15T04:54:16.596Z,1.40
2022-09-15T04:57:22.292Z,1.52
2022-09-15T05:00:28.802Z,1.50
2022-09-15T05:03:37.886Z,1.30
2022-09-15T05:06:44.108Z,1.50
2022-09-15T05:09:49.591Z,1.13
2022-09-15T05:12:55.197Z,1.33
2022-09-15T05:16:15.389Z,1.48
2022-09-15T05:19:21.315Z,1.38
2022-09-15T05:22:28.546Z,1.40
2022-09-15T05:25:34.776Z,1.38
2022-09-15T05:28:41.455Z,1.33
2022-09-15T05:31:48.418Z,1.40
2022-09-15T05:34:54.111Z,1.40
2022-09-15T05:38:00.211Z,1.30
2022-09-15T05:41:14.095Z,1.20
2022-09-15T05:44:21.649Z,1.33
2022-09-15T05:47:27.213Z,1.23
2022-09-15T05:50:32.704Z,1.50
2022-09-15T05:53:38.632Z,1.33
2022-09-15T05:56:44.256Z,1.40
2022-09-15T05:59:49.608Z,1.00
2022-09-15T06:02:55.020Z,1.27
2022-09-15T06:06:07.122Z,1.42
2022-09-15T06:09:12.815Z,1.40
2022-09-15T06:12:19.293Z,1.40
2022-09-15T06:15:25.326Z,1.50
2022-09-15T06:18:30.806Z,1.50
2022-09-15T06:21:36.993Z,1.63
2022-09-15T06:24:42.717Z,1.70
2022-09-15T06:27:50.919Z,1.50
2022-09-15T06:30:56.516Z,2.85
2022-09-15T06:34:11.472Z,3.22
2022-09-15T06:37:16.969Z,2.53
2022-09-15T06:40:22.993Z,2.00
2022-09-15T06:43:31.620Z,2.20
2022-09-15T06:46:37.233Z,2.00
2022-09-15T06:49:43.217Z,2.30
2022-09-15T06:52:49.100Z,1.95
2022-09-15T06:55:54.993Z,1.70
2022-09-15T06:59:01.334Z,1.50
2022-09-15T07:02:07.005Z,1.42
2022-09-15T07:05:12.747Z,1.60
2022-09-15T07:08:18.294Z,1.80
2022-09-15T07:11:25.409Z,1.50
2022-09-15T07:14:31.005Z,1.30
2022-09-15T07:17:38.086Z,1.30
2022-09-15T07:20:43.786Z,1.20
2022-09-15T07:23:49.963Z,1.10
2022-09-15T07:26:55.887Z,1.13
2022-09-15T07:30:02.538Z,1.20
2022-09-15T07:33:10.282Z,1.42
2022-09-15T07:36:16.486Z,1.10
2022-09-15T07:39:22.560Z,1.30
2022-09-15T07:42:32.058Z,1.25
2022-09-15T07:45:40.455Z,1.08
2022-09-15T07:48:47.637Z,1.15
2022-09-15T07:51:53.256Z,1.15
2022-09-15T07:54:58.926Z,1.10
2022-09-15T07:58:04.472Z,1.10
2022-09-15T08:01:12.028Z,1.10
2022-09-15T08:04:17.658Z,1.00
2022-09-15T08:07:24.457Z,1.15
2022-09-15T08:10:30.064Z,1.00
2022-09-15T08:13:37.192Z,1.00
2022-09-15T08:16:44.964Z,1.20
2022-09-15T08:19:50.420Z,1.10
2022-09-15T08:22:56.062Z,0.95
2022-09-15T08:26:02.183Z,0.90
2022-09-15T08:29:07.878Z,0.80
2022-09-15T08:32:13.443Z,1.00
2022-09-15T08:35:19.353Z,4.70
2022-09-15T08:38:25.025Z,2.50
2022-09-15T08:41:48.880Z,1.70
2022-09-15T08:45:08.425Z,1.52
2022-09-15T08:48:16.109Z,1.63
2022-09-15T08:51:31.452Z,1.65
2022-09-15T08:54:37.003Z,1.80
2022-09-15T08:57:43.746Z,1.58
2022-09-15T09:00:56.927Z,2.22
2022-09-15T09:04:38.396Z,2.33
2022-09-15T09:07:52.946Z,1.90
2022-09-15T09:11:01.173Z,2.20
2022-09-15T09:14:23.627Z,1.48
2022-09-15T09:17:35.303Z,1.92
2022-09-15T09:21:13.227Z,0.90
2022-09-15T09:24:48.331Z,1.20
2022-09-15T09:27:54.340Z,0.90
2022-09-15T09:31:08.198Z,0.70
2022-09-15T09:34:38.782Z,1.10
2022-09-15T09:37:45.187Z,5.57
2022-09-15T09:40:51.082Z,3.13
2022-09-15T09:43:57.155Z,1.40
2022-09-15T09:47:04.086Z,1.23
2022-09-15T09:50:35.258Z,1.10
2022-09-15T09:53:42.545Z,0.88
2022-09-15T09:56:53.169Z,1.10
2022-09-15T09:59:59.196Z,0.60
2022-09-15T10:03:15.198Z,8.30
2022-09-15T10:06:24.108Z,3.58
2022-09-15T10:09:33.220Z,0.80
2022-09-15T10:12:41.203Z,9.77
2022-09-15T10:15:54.647Z,2.10
2022-09-15T10:19:00.659Z,3.15
2022-09-15T10:22:06.474Z,14.57
2022-09-15T10:25:49.696Z,2.03
2022-09-15T10:29:18.301Z,4.20
2022-09-15T10:32:30.285Z,8.65
2022-09-15T10:35:42.157Z,5.45
2022-09-15T10:38:51.888Z,2.53
2022-09-15T10:42:14.221Z,4.60
2022-09-15T10:45:39.962Z,1.20
2022-09-15T10:49:07.378Z,0.93
2022-09-15T10:53:10.787Z,1.88
2022-09-15T10:56:39.972Z,0.90
2022-09-15T11:00:10.207Z,1.05
2022-09-15T11:03:46.919Z,1.58
2022-09-15T11:07:06.955Z,6.25
2022-09-15T11:10:40.977Z,0.98
2022-09-15T11:14:17.462Z,0.90
2022-09-15T11:17:27.189Z,1.00
2022-09-15T11:21:12.985Z,0.80
2022-09-15T11:24:42.728Z,0.90
2022-09-15T11:27:57.355Z,1.00
2022-09-15T11:31:17.270Z,0.80
2022-09-15T11:34:47.388Z,1.00
2022-09-15T11:37:57.123Z,1.27
2022-09-15T11:41:40.799Z,0.90
2022-09-15T11:44:48.181Z,0.80
2022-09-15T11:47:58.834Z,1.00
2022-09-15T11:51:07.694Z,1.00
2022-09-15T11:54:38.703Z,0.80
2022-09-15T11:58:09.204Z,1.30
2022-09-15T12:01:22.011Z,2.88
2022-09-15T12:05:12.949Z,1.58
2022-09-15T12:08:32.551Z,1.33
2022-09-15T12:11:57.497Z,1.08
2022-09-15T12:15:03.487Z,1.05
2022-09-15T12:18:34.866Z,1.02
2022-09-15T12:21:58.580Z,1.00
2022-09-15T12:25:06.894Z,1.17
2022-09-15T12:28:43.459Z,6.78
2022-09-15T12:31:49.633Z,43.22
2022-09-15T12:35:04.332Z,37.75
2022-09-15T12:38:14.299Z,2.58
2022-09-15T12:41:20.320Z,1.55
2022-09-15T12:44:58.472Z,1.20
2022-09-15T12:48:16.260Z,3.88
2022-09-15T12:51:26.677Z,1.40
2022-09-15T12:54:34.555Z,1.13
2022-09-15T12:57:40.590Z,1.30
2022-09-15T13:01:16.591Z,1.27
2022-09-15T13:04:43.846Z,1.40
2022-09-15T13:07:59.061Z,1.48
2022-09-15T13:11:26.343Z,1.70
2022-09-15T13:14:42.064Z,1.73
2022-09-15T13:17:47.953Z,1.70
2022-09-15T13:21:05.506Z,1.75
2022-09-15T13:24:45.218Z,1.48
2022-09-15T13:27:57.068Z,1.38
2022-09-15T13:31:42.423Z,1.52
2022-09-15T13:35:15.762Z,1.55
2022-09-15T13:38:52.505Z,1.83
2022-09-15T13:42:20.316Z,1.50
2022-09-15T13:46:12.731Z,1.35
2022-09-15T13:49:46.083Z,1.40
2022-09-15T13:53:00.879Z,1.35
2022-09-15T13:56:09.013Z,1.33
2022-09-15T13:59:25.217Z,3.60
2022-09-15T14:02:31.391Z,1.60
2022-09-15T14:05:37.478Z,2.90
2022-09-15T14:08:45.664Z,1.45
2022-09-15T14:11:55.484Z,2.92
2022-09-15T14:15:07.800Z,2.42
2022-09-15T14:18:20.677Z,2.10
2022-09-15T14:21:33.266Z,2.30
2022-09-15T14:24:40.814Z,2.00
2022-09-15T14:27:49.896Z,2.30
2022-09-15T14:30:55.675Z,1.92
2022-09-15T14:34:03.951Z,1.80
2022-09-15T14:37:24.164Z,1.85
2022-09-15T14:40:34.386Z,2.40
2022-09-15T14:43:42.322Z,1.90
2022-09-15T14:46:48.280Z,1.80
2022-09-15T14:50:13.414Z,2.03
2022-09-15T14:53:23.215Z,1.80
2022-09-15T14:56:35.860Z,1.50
2022-09-15T14:59:47.536Z,1.50
2022-09-15T15:03:20.026Z,1.52
2022-09-15T15:06:29.394Z,2.30
2022-09-15T15:09:59.556Z,1.73
2022-09-15T15:13:09.514Z,1.77
2022-09-15T15:16:28.313Z,2.20
2022-09-15T15:19:39.238Z,2.42
2022-09-15T15:22:46.540Z,2.20
2022-09-15T15:25:53.755Z,1.90
2022-09-15T15:28:59.738Z,2.10
2022-09-15T15:32:11.915Z,2.60
2022-09-15T15:35:18.889Z,2.22
2022-09-15T15:38:27.185Z,2.50
2022-09-15T15:41:41.366Z,3.50
2022-09-15T15:45:20.606Z,5.38
2022-09-15T15:48:31.734Z,13.15
2022-09-15T15:51:43.279Z,6.38
2022-09-15T15:54:49.388Z,3.13
2022-09-15T15:57:56.278Z,4.05
2022-09-15T16:01:01.930Z,4.35
2022-09-15T16:04:08.096Z,5.03
2022-09-15T16:07:18.567Z,4.78
2022-09-15T16:10:30.123Z,4.68
2022-09-15T16:13:36.379Z,5.63
2022-09-15T16:16:42.222Z,5.57
2022-09-15T16:19:48.179Z,5.05
2022-09-15T16:22:54.136Z,4.82
2022-09-15T16:26:07.567Z,6.20
2022-09-15T16:29:13.489Z,5.80
2022-09-15T16:32:21.959Z,5.45
2022-09-15T16:36:26.575Z,4.22
2022-09-15T16:40:35.836Z,4.45
2022-09-15T16:43:54.130Z,3.67
2022-09-15T16:47:35.734Z,3.13
2022-09-15T16:51:19.504Z,7.22
2022-09-15T16:54:46.435Z,4.07
2022-09-15T16:57:56.056Z,3.40
2022-09-15T17:01:11.271Z,4.38
2022-09-15T17:04:41.478Z,4.10
2022-09-15T17:07:49.946Z,7.55
2022-09-15T17:11:26.139Z,5.63
2022-09-15T17:14:43.274Z,5.22
2022-09-15T17:21:53.027Z,4.53
2022-09-15T17:25:02.674Z,4.10
2022-09-15T17:28:10.184Z,3.72
2022-09-15T17:31:22.100Z,3.90
2022-09-15T17:34:28.348Z,4.10
2022-09-15T17:37:34.574Z,4.30
2022-09-15T17:40:41.721Z,3.95
2022-09-15T17:43:47.867Z,4.05
2022-09-15T17:46:54.221Z,3.40
2022-09-15T17:50:03.184Z,3.78
2022-09-15T17:53:22.255Z,4.18
2022-09-15T17:56:28.395Z,6.22
2022-09-15T17:59:37.437Z,5.65
2022-09-15T18:02:45.949Z,4.97
2022-09-15T18:05:53.357Z,5.78
2022-09-15T18:09:02.226Z,6.00
2022-09-15T18:12:14.263Z,5.13
2022-09-15T18:15:26.525Z,4.68
2022-09-15T18:18:34.466Z,4.00
2022-09-15T18:21:42.274Z,4.53
2022-09-15T18:24:53.310Z,4.18
2022-09-15T18:28:01.280Z,4.55
2022-09-15T18:31:12.364Z,5.28
2022-09-15T18:34:22.814Z,6.20
2022-09-15T18:37:32.038Z,5.78
2022-09-15T18:40:38.585Z,6.25
2022-09-15T18:43:49.442Z,7.43
2022-09-15T18:46:55.750Z,8.45
2022-09-15T18:50:06.739Z,9.27
2022-09-15T18:53:12.677Z,9.95
2022-09-15T18:56:18.638Z,10.95
2022-09-15T18:59:29.548Z,10.55
2022-09-15T19:02:36.717Z,10.50
2022-09-15T19:05:42.849Z,10.10
2022-09-15T19:08:49.183Z,8.77
2022-09-15T19:11:55.517Z,7.82
2022-09-15T19:15:01.961Z,6.65
2022-09-15T19:18:07.860Z,5.90
2022-09-15T19:21:13.587Z,6.25
2022-09-15T19:24:19.368Z,4.50
2022-09-15T19:27:25.542Z,6.97
2022-09-15T19:30:31.559Z,5.05
2022-09-15T19:33:38.114Z,7.40
2022-09-15T19:36:44.851Z,5.25
2022-09-15T19:39:50.717Z,7.65
2022-09-15T19:42:56.230Z,4.88
2022-09-15T19:46:02.191Z,4.38
2022-09-15T19:49:08.653Z,5.25
2022-09-15T19:52:14.596Z,6.03
2022-09-15T19:55:20.521Z,6.90
2022-09-15T19:58:26.548Z,5.63
2022-09-15T20:01:32.925Z,5.93
2022-09-15T20:08:04.089Z,4.07
2022-09-15T20:11:10.414Z,6.75
2022-09-15T20:14:16.217Z,5.35
2022-09-15T20:17:21.855Z,5.88
2022-09-15T20:20:27.445Z,5.20
2022-09-15T20:23:34.273Z,4.80
2022-09-15T20:26:40.180Z,4.22
2022-09-15T20:29:45.799Z,4.38
2022-09-15T20:32:51.922Z,5.88
2022-09-15T20:36:10.312Z,5.65
2022-09-15T20:39:16.507Z,8.80
2022-09-15T20:42:22.289Z,5.78
2022-09-15T20:45:28.229Z,5.30
2022-09-15T20:48:36.917Z,5.70
2022-09-15T20:51:42.438Z,5.00
2022-09-15T20:54:48.185Z,4.82
2022-09-15T20:57:53.863Z,4.80
2022-09-15T21:01:10.174Z,4.82
2022-09-15T21:04:15.892Z,6.25
2022-09-15T21:07:22.189Z,8.45
2022-09-15T21:10:31.105Z,7.60
2022-09-15T21:13:39.063Z,5.10
2022-09-15T21:16:45.117Z,5.68
2022-09-15T21:19:50.798Z,5.13
2022-09-15T21:22:59.392Z,7.15
2022-09-15T21:26:08.441Z,8.05
2022-09-15T21:29:13.991Z,7.72
2022-09-15T21:32:20.000Z,6.72
2022-09-15T21:35:25.509Z,6.70
2022-09-15T21:38:31.409Z,4.95
2022-09-15T21:41:36.977Z,6.43
2022-09-15T21:44:42.810Z,5.35
2022-09-15T21:47:48.539Z,5.32
2022-09-15T21:50:54.535Z,7.32
2022-09-15T21:54:00.720Z,8.65
2022-09-15T21:57:06.442Z,30.20
2022-09-15T22:00:13.132Z,13.55
2022-09-15T22:03:19.484Z,8.00
2022-09-15T22:06:35.512Z,5.55
2022-09-15T22:09:41.366Z,6.30
2022-09-15T22:12:47.109Z,9.70
2022-09-15T22:15:52.846Z,9.20
2022-09-15T22:18:58.452Z,6.00
2022-09-15T22:22:04.202Z,4.53
2022-09-15T22:25:10.948Z,4.40
2022-09-15T22:28:16.734Z,3.78
2022-09-15T22:31:24.266Z,4.82
2022-09-15T22:34:30.437Z,3.45
2022-09-15T22:37:36.862Z,3.75
2022-09-15T22:40:42.488Z,3.60
2022-09-15T22:43:50.233Z,3.47
2022-09-15T22:46:57.170Z,7.63
2022-09-15T22:50:03.334Z,3.97
2022-09-15T22:53:09.246Z,3.38
2022-09-15T22:56:20.823Z,3.30
2022-09-15T22:59:28.040Z,3.60
2022-09-15T23:02:33.737Z,7.28
2022-09-15T23:05:39.731Z,11.77
2022-09-15T23:08:49.025Z,7.60
2022-09-15T23:11:55.076Z,15.32
2022-09-15T23:15:04.340Z,8.10
2022-09-15T23:18:10.547Z,5.25
2022-09-15T23:21:16.233Z,4.85
2022-09-15T23:24:22.179Z,3.72
2022-09-15T23:27:27.553Z,4.80
2022-09-15T23:30:32.907Z,4.00
2022-09-15T23:33:39.102Z,2.75
2022-09-15T23:36:44.960Z,2.58
2022-09-15T23:39:50.717Z,3.13
2022-09-15T23:42:56.370Z,3.50
2022-09-15T23:46:02.715Z,3.33
2022-09-15T23:49:08.575Z,2.70
2022-09-15T23:52:14.273Z,4.47
2022-09-15T23:55:20.170Z,5.47
2022-09-15T23:58:25.913Z,2.97
